Time;durP1;ratioP1;P1;durP2;ratioP2;P2;SDS_P1;SDS_P2;PMS_P1;PMS_P2;Temp;Humidity;BMP_temperature;BMP_pressure;BME280_temperature;BME280_humidity;BME280_pressure;Samples;Min_cycle;Max_cycle;Signal;HPM_P1;HPM_P2
2023/08/01 00:00:13;;;;;;;;;6.25;5.00;;;;;19.74;66.75;99909.00;5039655;28;46300;-63
2023/08/01 00:02:42;;;;;;;;;7.50;5.00;;;;;19.71;66.55;99888.75;5039771;28;45375;-64
2023/08/01 00:05:07;;;;;;;;;9.50;5.25;;;;;19.77;66.54;99899.00;5039824;28;45233;-63
2023/08/01 00:07:33;;;;;;;;;8.00;7.00;;;;;19.72;66.78;99901.13;5039744;28;45393;-63
2023/08/01 00:09:58;;;;;;;;;31.75;30.25;;;;;19.75;66.62;99897.41;5039400;28;45226;-64
2023/08/01 00:12:24;;;;;;;;;2.50;2.00;;;;;19.70;66.61;99903.03;5039429;28;45249;-63
2023/08/01 00:14:49;;;;;;;;;7.50;5.75;;;;;19.70;66.95;99887.03;5039718;28;45243;-63
2023/08/01 00:17:15;;;;;;;;;4.50;4.50;;;;;19.67;66.87;99879.22;5041665;28;50947;-63
2023/08/01 00:19:40;;;;;;;;;8.50;7.00;;;;;19.70;67.05;99916.34;5043176;28;45175;-63
2023/08/01 00:22:05;;;;;;;;;5.50;4.25;;;;;19.72;67.04;99908.25;5042945;28;45352;-63
2023/08/01 00:24:30;;;;;;;;;7.50;6.00;;;;;19.69;66.48;99903.97;5043069;28;45213;-63
2023/08/01 00:26:56;;;;;;;;;7.75;7.00;;;;;19.69;66.60;99889.81;5041732;28;45633;-63
2023/08/01 00:29:22;;;;;;;;;3.75;3.75;;;;;19.67;66.47;99894.38;5042641;28;46268;-63
2023/08/01 00:31:47;;;;;;;;;7.00;6.00;;;;;19.67;66.66;99883.72;5043114;28;45325;-63
2023/08/01 00:34:13;;;;;;;;;4.00;4.00;;;;;19.68;66.47;99896.94;5042984;28;45395;-63
2023/08/01 00:36:38;;;;;;;;;1.00;1.00;;;;;19.69;66.65;99887.13;5043049;28;45312;-63
2023/08/01 00:39:04;;;;;;;;;3.75;3.00;;;;;19.61;66.64;99877.84;5041413;28;47232;-63
2023/08/01 00:41:29;;;;;;;;;7.00;5.00;;;;;19.66;66.76;99885.53;5042703;28;45321;-63
2023/08/01 00:43:54;;;;;;;;;5.00;3.50;;;;;19.69;66.87;99884.47;5042712;28;45305;-63
2023/08/01 00:46:20;;;;;;;;;5.50;3.50;;;;;19.70;67.04;99889.69;5042822;28;45337;-63
2023/08/01 00:48:46;;;;;;;;;6.75;4.00;;;;;19.71;66.94;99879.88;5042673;28;46047;-63
2023/08/01 00:51:12;;;;;;;;;6.25;4.25;;;;;19.67;66.90;99897.03;5025020;28;45190;-63
2023/08/01 00:53:39;;;;;;;;;3.00;3.00;;;;;19.69;66.63;99881.81;5041576;28;45316;-63
2023/08/01 00:56:04;;;;;;;;;4.25;3.00;;;;;19.70;66.83;99900.34;5042421;28;45546;-63
2023/08/01 00:58:30;;;;;;;;;4.25;4.25;;;;;19.69;67.10;99868.47;5041784;28;45651;-63
2023/08/01 01:00:56;;;;;;;;;4.25;3.25;;;;;19.64;67.53;99866.94;5042496;28;47957;-63
2023/08/01 01:03:22;;;;;;;;;4.00;4.00;;;;;19.64;66.99;99858.97;5042705;28;45265;-63
2023/08/01 01:06:06;;;;;;;;;3.25;3.25;;;;;19.67;66.72;99851.72;5042417;28;45371;-63
2023/08/01 01:08:32;;;;;;;;;3.00;3.00;;;;;19.67;66.73;99865.91;5042198;28;46576;-63
2023/08/01 01:10:57;;;;;;;;;6.25;3.50;;;;;19.66;67.13;99856.22;5042290;28;45384;-63
2023/08/01 01:13:22;;;;;;;;;6.50;4.25;;;;;19.68;66.99;99853.44;5042172;28;45328;-63
2023/08/01 01:15:48;;;;;;;;;6.25;4.00;;;;;19.64;66.78;99855.44;5042337;28;45395;-63
2023/08/01 01:18:13;;;;;;;;;2.00;2.00;;;;;19.65;67.32;99847.34;5041727;28;61048;-63
2023/08/01 01:20:38;;;;;;;;;4.75;2.25;;;;;19.67;67.30;99847.25;5042321;28;45302;-63
2023/08/01 01:23:06;;;;;;;;;4.75;4.25;;;;;19.68;66.79;99845.44;5042156;28;45478;-63
2023/08/01 01:25:32;;;;;;;;;3.00;2.33;;;;;19.63;66.88;99832.41;5041986;28;45619;-63
2023/08/01 01:27:59;;;;;;;;;2.25;2.25;;;;;19.65;67.04;99842.03;5041768;28;45238;-63
2023/08/01 01:30:27;;;;;;;;;2.50;2.50;;;;;19.59;66.90;99821.09;5042119;28;45332;-62
2023/08/01 01:32:53;;;;;;;;;3.00;3.00;;;;;19.62;66.68;99828.03;5042004;28;45335;-63
2023/08/01 01:35:18;;;;;;;;;2.25;1.75;;;;;19.61;67.34;99827.19;5042104;28;45453;-63
2023/08/01 01:37:43;;;;;;;;;3.00;3.00;;;;;19.67;66.89;99833.91;5041865;28;47018;-63
2023/08/01 01:40:09;;;;;;;;;2.00;2.00;;;;;19.70;67.21;99840.84;5042075;28;45430;-63
2023/08/01 01:42:34;;;;;;;;;1.00;1.00;;;;;19.67;66.96;99836.59;5041716;28;45513;-63
2023/08/01 01:45:00;;;;;;;;;3.50;3.00;;;;;19.60;66.82;99819.31;5040437;28;45379;-63
2023/08/01 01:47:25;;;;;;;;;1.50;1.00;;;;;19.67;67.05;99833.06;5041600;28;49721;-63
2023/08/01 01:49:50;;;;;;;;;1.00;1.00;;;;;19.68;67.10;99832.97;5041870;28;45426;-63
2023/08/01 01:52:15;;;;;;;;;3.75;3.75;;;;;19.70;66.69;99849.72;5041857;28;45492;-63
2023/08/01 01:54:41;;;;;;;;;4.00;2.00;;;;;19.71;67.03;99854.09;5041525;28;55843;-63
2023/08/01 01:57:06;;;;;;;;;3.00;2.00;;;;;19.73;66.61;99872.66;5041140;28;45862;-63
2023/08/01 01:59:32;;;;;;;;;1.33;1.00;;;;;19.72;67.01;99884.25;5041699;28;45182;-63
2023/08/01 02:01:57;;;;;;;;;0.00;0.00;;;;;19.74;67.48;99877.88;5041960;28;45265;-63
2023/08/01 02:04:22;;;;;;;;;1.00;0.00;;;;;19.71;66.83;99875.41;5041585;28;45404;-63
2023/08/01 02:06:48;;;;;;;;;0.00;0.00;;;;;19.69;67.04;99877.31;5041428;28;45155;-63
2023/08/01 02:09:13;;;;;;;;;0.00;0.00;;;;;19.64;67.05;99874.09;5041794;28;45271;-63
2023/08/01 02:11:38;;;;;;;;;0.00;0.00;;;;;19.64;67.07;99874.09;5041431;28;45163;-63
2023/08/01 02:14:04;;;;;;;;;0.00;0.00;;;;;19.62;66.63;99881.34;5041402;28;45516;-63
2023/08/01 02:16:29;;;;;;;;;0.00;0.00;;;;;19.61;66.92;99877.00;5041498;28;46105;-63
2023/08/01 02:18:54;;;;;;;;;0.00;0.00;;;;;19.60;66.75;99884.09;5041505;28;45297;-63
2023/08/01 02:21:20;;;;;;;;;0.00;0.00;;;;;19.58;66.49;99879.84;5041333;28;45229;-63
2023/08/01 02:23:45;;;;;;;;;0.00;0.00;;;;;19.55;66.44;99880.91;5041079;28;45239;-63
2023/08/01 02:26:10;;;;;;;;;0.00;0.00;;;;;19.53;66.32;99880.13;5041106;28;45341;-63
2023/08/01 02:28:35;;;;;;;;;1.00;1.00;;;;;19.52;66.91;99889.09;5041176;28;45239;-63
2023/08/01 02:31:01;;;;;;;;;0.00;0.00;;;;;19.52;66.80;99893.56;5041000;28;47397;-64
2023/08/01 02:33:26;;;;;;;;;0.00;0.00;;;;;19.46;66.77;99887.69;5041394;28;45403;-63
2023/08/01 02:35:51;;;;;;;;;4.00;4.00;;;;;19.46;66.87;99892.16;5040874;28;50742;-63
2023/08/01 02:38:17;;;;;;;;;1.25;1.25;;;;;19.43;66.76;99885.22;5041059;28;45269;-63
2023/08/01 02:40:42;;;;;;;;;1.25;0.00;;;;;19.44;67.02;99896.72;5040509;28;45340;-63
2023/08/01 02:43:08;;;;;;;;;10.00;8.00;;;;;19.41;66.28;99889.78;5040058;28;45317;-63
2023/08/01 02:45:33;;;;;;;;;2.00;1.00;;;;;19.42;66.35;99912.81;5040727;28;46949;-63
2023/08/01 02:47:58;;;;;;;;;8.50;6.75;;;;;19.44;66.60;99910.03;5040886;28;45312;-63
2023/08/01 02:50:23;;;;;;;;;3.00;3.00;;;;;19.45;66.04;99912.59;5041013;28;45424;-63
2023/08/01 02:52:49;;;;;;;;;2.25;1.00;;;;;19.43;66.10;99911.88;5040164;28;45590;-63
2023/08/01 02:55:14;;;;;;;;;2.00;1.75;;;;;19.47;66.35;99915.16;5040594;28;45905;-63
2023/08/01 02:57:39;;;;;;;;;1.00;0.00;;;;;19.43;65.85;99908.31;5040647;28;45428;-63
2023/08/01 03:00:05;;;;;;;;;0.00;0.00;;;;;19.48;66.20;99917.75;5040893;28;45440;-63
2023/08/01 03:02:31;;;;;;;;;1.00;1.00;;;;;19.47;65.64;99920.50;5040564;28;45435;-60
2023/08/01 03:04:57;;;;;;;;;0.00;0.00;;;;;19.46;66.08;99938.28;5040243;28;45247;-63
2023/08/01 03:07:22;;;;;;;;;1.00;1.00;;;;;19.47;65.64;99942.69;5040762;28;45253;-63
2023/08/01 03:09:47;;;;;;;;;1.00;1.00;;;;;19.48;66.05;99941.72;5040684;28;45588;-63
2023/08/01 03:12:13;;;;;;;;;1.00;1.00;;;;;19.46;66.16;99932.97;5040280;28;45569;-63
2023/08/01 03:14:38;;;;;;;;;1.33;1.00;;;;;19.44;65.61;99936.69;5040475;28;45218;-63
2023/08/01 03:17:03;;;;;;;;;3.00;1.00;;;;;19.44;66.10;99942.00;5040342;28;45170;-63
2023/08/01 03:19:29;;;;;;;;;2.00;2.00;;;;;19.45;65.41;99954.38;5032734;28;45281;-64
2023/08/01 03:21:55;;;;;;;;;1.00;1.00;;;;;19.44;65.22;99948.19;5020126;28;52716;-63
2023/08/01 03:24:20;;;;;;;;;1.00;1.00;;;;;19.44;65.67;99971.31;5020366;28;45545;-63
2023/08/01 03:26:46;;;;;;;;;1.00;1.00;;;;;19.41;65.19;99959.06;5018804;28;45413;-63
2023/08/01 03:29:11;;;;;;;;;2.00;1.25;;;;;19.43;65.65;99970.47;5020416;28;45433;-63
2023/08/01 03:31:36;;;;;;;;;2.00;2.00;;;;;19.39;65.42;99968.09;5020445;28;45231;-63
2023/08/01 03:34:01;;;;;;;;;2.33;1.00;;;;;19.38;65.62;99971.72;5020229;28;46023;-63
2023/08/01 03:36:28;;;;;;;;;1.50;1.50;;;;;19.34;64.87;99979.03;5020295;28;46636;-63
2023/08/01 03:38:53;;;;;;;;;1.67;0.67;;;;;19.30;65.19;99978.38;5020258;28;45551;-63
2023/08/01 03:41:18;;;;;;;;;0.00;0.00;;;;;19.25;64.55;99976.97;5020060;28;45406;-63
2023/08/01 03:43:44;;;;;;;;;0.33;0.33;;;;;19.20;64.77;99976.38;5019774;28;45316;-63
2023/08/01 03:46:09;;;;;;;;;1.33;0.00;;;;;19.15;64.33;99980.16;5020208;28;45459;-63
2023/08/01 03:48:34;;;;;;;;;0.33;0.33;;;;;19.14;64.73;99993.59;5020214;28;45325;-63
2023/08/01 03:51:00;;;;;;;;;1.00;1.00;;;;;19.09;64.51;99983.22;5019120;28;45382;-63
2023/08/01 03:53:25;;;;;;;;;0.00;0.00;;;;;19.07;64.66;99998.44;5019919;28;46052;-63
2023/08/01 03:55:51;;;;;;;;;0.33;0.33;;;;;19.05;64.42;100004.81;5020097;28;45363;-63
2023/08/01 03:58:16;;;;;;;;;1.00;1.00;;;;;19.01;64.53;99998.81;5020730;28;45309;-63
2023/08/01 04:00:42;;;;;;;;;0.00;0.00;;;;;18.98;64.46;99999.88;5034124;28;45312;-63
2023/08/01 04:03:08;;;;;;;;;0.33;0.00;;;;;18.95;64.09;99996.53;5039778;28;45472;-63
2023/08/01 04:05:33;;;;;;;;;2.00;2.00;;;;;18.93;64.05;99993.97;5039604;28;45226;-63
2023/08/01 04:07:59;;;;;;;;;1.67;0.33;;;;;18.88;64.26;100005.81;5039700;28;45396;-63
2023/08/01 04:10:24;;;;;;;;;1.67;1.67;;;;;18.82;63.71;99999.91;5039547;28;45260;-63
2023/08/01 04:12:50;;;;;;;;;1.00;1.00;;;;;18.79;63.82;99991.25;5039425;28;45269;-63
2023/08/01 04:15:15;;;;;;;;;2.00;2.00;;;;;18.79;63.65;99999.22;5039850;28;45214;-60
2023/08/01 04:17:40;;;;;;;;;2.33;2.00;;;;;18.76;63.53;100000.28;5031719;28;45325;-60
2023/08/01 04:20:06;;;;;;;;;2.00;1.00;;;;;18.73;63.59;100011.13;5019745;28;49322;-62
2023/08/01 04:22:32;;;;;;;;;2.33;1.33;;;;;18.71;63.61;100012.16;5019363;28;46848;-63
2023/08/01 04:24:57;;;;;;;;;3.00;2.50;;;;;18.65;63.64;100006.25;5019323;28;45345;-62
2023/08/01 04:27:22;;;;;;;;;2.00;2.00;;;;;18.64;63.30;100016.97;5019585;28;45292;-63
2023/08/01 04:29:48;;;;;;;;;4.50;3.25;;;;;18.60;63.67;100010.13;5019610;28;45466;-63
2023/08/01 04:32:14;;;;;;;;;3.75;2.25;;;;;18.55;63.52;100015.72;5019424;28;46267;-63
2023/08/01 04:34:40;;;;;;;;;3.00;1.00;;;;;18.53;63.23;100017.63;5019666;28;45365;-63
2023/08/01 04:37:06;;;;;;;;;3.00;3.00;;;;;18.51;63.36;100016.84;5019459;28;45373;-63
2023/08/01 04:39:31;;;;;;;;;3.00;3.00;;;;;18.48;63.06;100017.88;5019566;28;45310;-63
2023/08/01 04:41:56;;;;;;;;;2.00;2.00;;;;;18.49;62.99;100019.59;5018640;28;55754;-63
2023/08/01 04:44:22;;;;;;;;;3.75;3.75;;;;;18.48;63.32;100017.88;5019372;28;45223;-63
2023/08/01 04:46:48;;;;;;;;;1.33;1.33;;;;;18.47;62.80;100015.31;5019329;28;45218;-63
2023/08/01 04:49:14;;;;;;;;;2.50;2.50;;;;;18.43;63.18;100005.81;5019623;28;45476;-63
2023/08/01 04:51:39;;;;;;;;;2.00;2.00;;;;;18.43;63.22;100011.13;5019190;28;46118;-63
2023/08/01 04:54:04;;;;;;;;;1.00;1.00;;;;;18.41;62.91;100016.50;5019406;28;45326;-63
2023/08/01 04:56:29;;;;;;;;;2.25;1.25;;;;;18.38;62.81;100024.69;5019131;28;46669;-63
2023/08/01 04:58:55;;;;;;;;;3.00;2.00;;;;;18.38;62.80;100026.47;5025716;28;45290;-63
2023/08/01 05:01:20;;;;;;;;;3.25;1.00;;;;;18.36;63.11;100026.56;5038997;28;46088;-63
2023/08/01 05:03:45;;;;;;;;;2.00;1.75;;;;;18.35;63.12;100022.19;5023743;28;45336;-63
2023/08/01 05:06:11;;;;;;;;;2.75;1.50;;;;;18.31;62.84;100032.19;5042824;28;45160;-63
2023/08/01 05:08:36;;;;;;;;;2.25;1.50;;;;;18.29;63.01;100026.06;5042343;28;47136;-62
2023/08/01 05:11:01;;;;;;;;;3.50;1.50;;;;;18.26;62.79;100030.72;5024504;28;46310;-62
2023/08/01 05:13:27;;;;;;;;;2.00;2.00;;;;;18.26;62.77;100033.38;5042068;28;45356;-63
2023/08/01 05:15:52;;;;;;;;;1.25;1.25;;;;;18.25;62.55;100036.97;5042692;28;45344;-63
2023/08/01 05:18:17;;;;;;;;;4.00;3.25;;;;;18.23;62.76;100031.75;5042298;28;45587;-63
2023/08/01 05:20:43;;;;;;;;;2.75;2.50;;;;;18.21;62.68;100038.94;5042394;28;46122;-63
2023/08/01 05:23:08;;;;;;;;;3.00;2.50;;;;;18.18;62.49;100044.47;5041993;28;45287;-62
2023/08/01 05:25:34;;;;;;;;;3.50;3.50;;;;;18.16;62.43;100041.00;5042302;28;45286;-63
2023/08/01 05:27:59;;;;;;;;;2.00;2.00;;;;;18.11;62.65;100029.78;5041804;28;45522;-63
2023/08/01 05:30:25;;;;;;;;;2.75;2.75;;;;;18.10;62.46;100036.91;5042268;28;45530;-63
2023/08/01 05:32:50;;;;;;;;;2.25;2.25;;;;;18.08;62.48;100037.94;5041927;28;45313;-63
2023/08/01 05:35:16;;;;;;;;;1.50;1.50;;;;;18.04;62.37;100047.91;5042341;28;45313;-63
2023/08/01 05:37:41;;;;;;;;;4.00;2.25;;;;;18.04;62.56;100047.91;5042182;28;45320;-63
2023/08/01 05:40:08;;;;;;;;;3.75;3.00;;;;;18.02;62.25;100055.97;5041768;28;46194;-63
2023/08/01 05:42:33;;;;;;;;;2.25;2.00;;;;;18.04;62.36;100066.50;5041623;28;45281;-63
2023/08/01 05:44:58;;;;;;;;;4.00;2.75;;;;;18.03;62.32;100070.09;5041905;28;45188;-60
2023/08/01 05:47:24;;;;;;;;;1.00;1.00;;;;;18.03;62.45;100060.31;5041778;28;45224;-63
2023/08/01 05:49:49;;;;;;;;;4.00;2.50;;;;;18.05;62.50;100072.66;5041954;28;45249;-63
2023/08/01 05:52:14;;;;;;;;;2.25;2.25;;;;;18.02;62.22;100076.34;5041742;28;45398;-63
2023/08/01 05:54:40;;;;;;;;;2.00;2.00;;;;;17.98;62.46;100080.13;5042286;28;45241;-63
2023/08/01 05:57:05;;;;;;;;;2.00;2.00;;;;;17.95;62.19;100075.84;5039917;28;45243;-63
2023/08/01 05:59:31;;;;;;;;;1.00;1.00;;;;;17.97;62.17;100071.28;5041826;28;46112;-63
2023/08/01 06:01:56;;;;;;;;;3.00;3.00;;;;;17.97;62.29;100073.09;5040350;28;45245;-63
2023/08/01 06:04:21;;;;;;;;;4.50;4.50;;;;;17.95;62.65;100086.47;5041640;28;45382;-63
2023/08/01 06:06:47;;;;;;;;;4.00;3.00;;;;;17.95;61.99;100081.16;5041635;28;45407;-63
2023/08/01 06:09:12;;;;;;;;;3.00;2.25;;;;;17.95;62.02;100093.56;5041570;28;46580;-63
2023/08/01 06:11:37;;;;;;;;;3.75;3.00;;;;;17.94;62.31;100095.41;5041244;28;45430;-63
2023/08/01 06:14:03;;;;;;;;;2.00;2.00;;;;;17.94;62.05;100089.22;5040503;28;45826;-63
2023/08/01 06:16:28;;;;;;;;;1.50;1.00;;;;;17.95;62.29;100101.56;5041440;28;45256;-63
2023/08/01 06:18:53;;;;;;;;;1.75;1.75;;;;;17.95;61.92;100093.56;5041379;28;46303;-63
2023/08/01 06:21:19;;;;;;;;;3.50;3.50;;;;;17.94;61.96;100099.88;5040861;28;58530;-62
2023/08/01 06:23:44;;;;;;;;;4.00;4.00;;;;;17.92;62.02;100104.38;5023380;28;45288;-63
2023/08/01 06:26:09;;;;;;;;;2.75;1.25;;;;;17.91;61.78;100103.53;5041069;28;45345;-62
2023/08/01 06:28:35;;;;;;;;;2.67;2.67;;;;;17.93;61.90;100100.78;5041031;28;47706;-63
2023/08/01 06:31:00;;;;;;;;;3.25;2.25;;;;;17.95;62.12;100112.19;5041239;28;45253;-63
2023/08/01 06:33:25;;;;;;;;;4.00;3.25;;;;;17.95;62.08;100109.53;5041345;28;45326;-63
2023/08/01 06:35:51;;;;;;;;;6.50;4.00;;;;;17.97;61.92;100118.28;5040988;28;45503;-62
2023/08/01 06:38:16;;;;;;;;;3.25;2.00;;;;;17.98;61.70;100114.69;5041122;28;45254;-63
2023/08/01 06:40:41;;;;;;;;;2.00;2.00;;;;;17.99;61.97;100105.78;5040660;28;52964;-62
2023/08/01 06:43:06;;;;;;;;;1.50;1.25;;;;;18.00;61.80;100118.97;5040955;28;45537;-63
2023/08/01 06:45:32;;;;;;;;;2.50;2.00;;;;;17.99;61.78;100103.13;5040915;28;45221;-62
2023/08/01 06:47:57;;;;;;;;;4.00;3.00;;;;;18.00;61.40;100104.84;5040953;28;45953;-62
2023/08/01 06:50:23;;;;;;;;;5.00;2.50;;;;;18.03;61.60;100113.47;5040903;28;45229;-63
2023/08/01 06:52:48;;;;;;;;;3.50;3.00;;;;;18.05;61.46;100116.06;5041123;28;45298;-63
2023/08/01 06:55:13;;;;;;;;;3.00;3.00;;;;;18.05;61.51;100109.88;5040678;28;45572;-62
2023/08/01 06:57:39;;;;;;;;;3.50;3.00;;;;;18.05;61.60;100108.09;5040137;28;45593;-62
2023/08/01 07:00:05;;;;;;;;;5.50;3.25;;;;;18.05;61.47;100124.06;5040797;28;45222;-62
2023/08/01 07:02:31;;;;;;;;;2.00;2.00;;;;;18.09;61.57;100127.41;5029272;28;45256;-62
2023/08/01 07:04:56;;;;;;;;;2.25;2.25;;;;;18.10;61.10;100132.63;5040326;28;45230;-62
2023/08/01 07:07:22;;;;;;;;;4.75;4.00;;;;;18.10;61.72;100123.78;5040364;28;56077;-62
2023/08/01 07:09:47;;;;;;;;;7.50;7.50;;;;;18.12;61.13;100130.72;5040443;28;45343;-62
2023/08/01 07:12:12;;;;;;;;;5.00;5.00;;;;;18.15;60.80;100133.22;5039193;28;45277;-62
2023/08/01 07:14:38;;;;;;;;;3.50;3.25;;;;;18.15;61.21;100138.53;5040611;28;45369;-62
2023/08/01 07:17:04;;;;;;;;;3.25;2.25;;;;;18.17;60.86;100130.47;5040498;28;45447;-62
2023/08/01 07:19:29;;;;;;;;;5.50;4.00;;;;;18.17;60.71;100133.13;5040243;28;45320;-62
2023/08/01 07:21:54;;;;;;;;;4.75;2.00;;;;;18.19;60.65;100139.25;5040595;28;45242;-61
2023/08/01 07:24:20;;;;;;;;;5.00;3.00;;;;;18.21;60.67;100140.00;5022251;28;48452;-61
2023/08/01 07:26:45;;;;;;;;;2.00;0.50;;;;;18.22;60.78;100138.22;5039827;28;45982;-62
2023/08/01 07:29:11;;;;;;;;;3.50;3.00;;;;;18.26;60.49;100127.28;5039508;28;45242;-62
2023/08/01 07:31:37;;;;;;;;;8.75;3.00;;;;;18.31;60.78;100141.22;5040366;28;45258;-62
2023/08/01 07:34:02;;;;;;;;;5.00;3.25;;;;;18.37;60.64;100140.00;5040165;28;45626;-62
2023/08/01 07:36:27;;;;;;;;;2.50;2.00;;;;;18.41;60.30;100143.34;5040331;28;46501;-62
2023/08/01 07:38:54;;;;;;;;;3.00;2.50;;;;;18.43;60.32;100142.31;5040115;28;45397;-62
2023/08/01 07:41:19;;;;;;;;;3.00;2.75;;;;;18.47;60.50;100148.31;5040122;28;45242;-62
2023/08/01 07:43:44;;;;;;;;;3.75;2.25;;;;;18.50;60.21;100156.13;5039728;28;45237;-62
2023/08/01 07:46:11;;;;;;;;;4.25;2.25;;;;;18.52;60.36;100155.09;5039677;28;53899;-62
2023/08/01 07:48:37;;;;;;;;;5.00;4.00;;;;;18.56;60.19;100153.09;5039997;28;45404;-62
2023/08/01 07:51:05;;;;;;;;;3.75;3.00;;;;;18.59;60.20;100160.94;5040207;28;45320;-62
2023/08/01 07:53:30;;;;;;;;;4.00;4.00;;;;;18.62;60.39;100155.44;5039999;28;45329;-62
2023/08/01 07:55:55;;;;;;;;;3.25;2.25;;;;;18.67;60.00;100155.16;5027436;28;45625;-62
2023/08/01 07:58:21;;;;;;;;;3.00;3.00;;;;;18.71;60.21;100159.38;5025942;28;45487;-62
2023/08/01 08:00:46;;;;;;;;;4.00;2.50;;;;;18.77;60.04;100161.66;5039960;28;47890;-62
2023/08/01 08:03:11;;;;;;;;;4.75;3.50;;;;;18.82;60.28;100169.41;5038463;28;45372;-62
2023/08/01 08:05:38;;;;;;;;;6.50;5.00;;;;;18.87;59.58;100174.44;5039781;28;46066;-62
2023/08/01 08:08:05;;;;;;;;;3.00;3.00;;;;;18.93;59.59;100168.78;5039024;28;45325;-62
2023/08/01 08:10:30;;;;;;;;;3.00;2.00;;;;;18.93;59.65;100167.00;5039926;28;45330;-63
2023/08/01 08:12:55;;;;;;;;;2.50;1.75;;;;;19.01;59.58;100179.88;5039297;28;45446;-62
2023/08/01 08:15:21;;;;;;;;;4.00;2.75;;;;;19.00;59.16;100172.81;5039677;28;46464;-62
2023/08/01 08:17:46;;;;;;;;;3.50;3.00;;;;;19.07;59.73;100178.63;5039866;28;45387;-62
2023/08/01 08:20:11;;;;;;;;;4.50;3.50;;;;;19.10;59.14;100178.47;5039839;28;45829;-62
2023/08/01 08:22:37;;;;;;;;;3.25;3.25;;;;;19.14;59.18;100172.88;5039598;28;45674;-62
2023/08/01 08:25:02;;;;;;;;;5.75;4.00;;;;;19.16;59.06;100178.97;5039411;28;46328;-62
2023/08/01 08:27:28;;;;;;;;;5.00;3.75;;;;;19.21;59.45;100180.50;5039412;28;45372;-62
2023/08/01 08:29:53;;;;;;;;;1.75;1.50;;;;;19.25;58.84;100174.03;5039722;28;45321;-62
2023/08/01 08:32:18;;;;;;;;;3.50;2.50;;;;;19.31;58.86;100187.00;5039621;28;45377;-62
2023/08/01 08:34:44;;;;;;;;;6.00;3.50;;;;;19.35;59.00;100177.88;5024886;28;46209;-62
2023/08/01 08:37:09;;;;;;;;;6.75;3.00;;;;;19.41;58.76;100184.66;5026368;28;45326;-62
2023/08/01 08:39:34;;;;;;;;;4.00;4.00;;;;;19.46;59.08;100185.22;5023315;28;45250;-62
2023/08/01 08:42:00;;;;;;;;;5.50;4.25;;;;;19.53;58.43;100175.88;5022710;28;45248;-62
2023/08/01 08:44:28;;;;;;;;;2.75;0.75;;;;;19.54;58.27;100171.44;5023029;28;46412;-62
2023/08/01 08:46:55;;;;;;;;;4.75;3.25;;;;;19.57;58.78;100182.78;5022914;28;45242;-62
2023/08/01 08:49:21;;;;;;;;;5.00;3.00;;;;;19.57;58.51;100174.78;5023112;28;45247;-62
2023/08/01 08:51:47;;;;;;;;;2.50;2.50;;;;;19.59;58.68;100188.00;5022676;28;45429;-62
2023/08/01 08:54:15;;;;;;;;;3.50;3.50;;;;;19.64;58.01;100191.25;5022914;28;45392;-62
2023/08/01 08:56:41;;;;;;;;;4.75;3.00;;;;;19.69;58.54;100183.81;5022228;28;45349;-62
2023/08/01 08:59:08;;;;;;;;;4.00;2.25;;;;;19.71;58.42;100194.38;5031040;28;45499;-62
2023/08/01 09:01:34;;;;;;;;;5.25;4.00;;;;;19.74;57.93;100191.53;5042589;28;45248;-62
2023/08/01 09:03:59;;;;;;;;;2.50;2.50;;;;;19.77;57.67;100189.56;5042374;28;46322;-62
2023/08/01 09:06:29;;;;;;;;;4.25;2.75;;;;;19.81;57.91;100185.72;5041725;28;45213;-62
2023/08/01 09:09:12;;;;;;;;;2.75;2.00;;;;;19.88;57.32;100191.56;5042881;28;45329;-61
2023/08/01 09:11:51;;;;;;;;;2.00;2.00;;;;;19.93;57.63;100194.81;5041881;28;46391;-62
2023/08/01 09:14:18;;;;;;;;;5.00;4.00;;;;;19.96;57.63;100188.41;5042322;28;45328;-62
2023/08/01 09:16:44;;;;;;;;;3.00;2.25;;;;;20.00;57.43;100194.41;5042348;28;45265;-62
2023/08/01 09:19:12;;;;;;;;;5.75;3.00;;;;;20.01;57.14;100178.31;5042502;28;45231;-62
2023/08/01 09:21:39;;;;;;;;;2.75;2.75;;;;;20.07;56.99;100187.75;5042254;28;45511;-62
2023/08/01 09:24:18;;;;;;;;;10.25;7.75;;;;;20.11;56.84;100192.81;5042073;28;45388;-62
2023/08/01 09:26:45;;;;;;;;;4.50;3.00;;;;;20.16;56.93;100194.31;5041969;28;45290;-61
2023/08/01 09:29:10;;;;;;;;;5.00;4.00;;;;;20.21;56.94;100202.88;5042347;28;45258;-62
2023/08/01 09:31:41;;;;;;;;;4.75;2.75;;;;;20.27;56.46;100197.16;5042362;28;45236;-62
2023/08/01 09:34:24;;;;;;;;;3.75;2.00;;;;;20.33;56.81;100191.44;5042059;28;45382;-62
2023/08/01 09:36:51;;;;;;;;;5.75;2.25;;;;;20.40;56.43;100194.56;5024248;28;45342;-62
2023/08/01 09:39:18;;;;;;;;;5.25;4.25;;;;;20.44;56.82;100188.09;5042028;28;45372;-62
2023/08/01 09:41:44;;;;;;;;;2.25;2.25;;;;;20.50;56.31;100192.16;5032710;28;45720;-62
2023/08/01 09:44:15;;;;;;;;;4.00;3.50;;;;;20.59;56.07;100216.47;5022568;28;45939;-62
2023/08/01 09:46:42;;;;;;;;;4.00;3.50;;;;;20.68;55.79;100196.31;5021925;28;45267;-62
2023/08/01 09:49:11;;;;;;;;;4.75;4.75;;;;;20.74;55.94;100193.28;5020895;28;45310;-62
2023/08/01 09:51:50;;;;;;;;;4.00;3.00;;;;;20.84;55.20;100187.31;5021927;28;45491;-62
2023/08/01 09:54:16;;;;;;;;;3.00;3.00;;;;;20.90;55.76;100189.59;5021770;28;46391;-62
2023/08/01 09:56:47;;;;;;;;;4.75;3.00;;;;;20.96;55.12;100199.03;5021219;28;45345;-62
2023/08/01 09:59:16;;;;;;;;;4.50;4.50;;;;;21.03;54.89;100219.00;5030908;28;45532;-61
2023/08/01 10:01:43;;;;;;;;;2.75;2.75;;;;;21.06;55.10;100214.31;5041563;28;45501;-62
2023/08/01 10:04:11;;;;;;;;;4.75;3.00;;;;;21.14;55.13;100210.28;5041280;28;46305;-61
2023/08/01 10:06:41;;;;;;;;;2.00;2.00;;;;;21.19;54.70;100210.84;5023621;28;45266;-62
2023/08/01 10:09:10;;;;;;;;;5.75;2.75;;;;;21.22;54.46;100215.97;5040549;28;45514;-62
2023/08/01 10:11:38;;;;;;;;;3.75;2.25;;;;;21.24;54.78;100204.25;5040990;28;45427;-62
2023/08/01 10:14:04;;;;;;;;;2.00;2.00;;;;;21.29;54.42;100203.91;5041477;28;46558;-62
2023/08/01 10:16:30;;;;;;;;;4.25;3.25;;;;;21.37;54.33;100190.03;5041275;28;45252;-61
2023/08/01 10:18:59;;;;;;;;;4.00;4.00;;;;;21.43;54.01;100200.28;5041246;28;45319;-62
2023/08/01 10:21:26;;;;;;;;;3.75;3.50;;;;;21.46;54.14;100201.91;5041359;28;45366;-62
2023/08/01 10:23:51;;;;;;;;;1.75;1.75;;;;;21.49;54.34;100196.34;5040253;28;46503;-62
2023/08/01 10:26:17;;;;;;;;;3.25;3.25;;;;;21.57;53.85;100191.34;5040947;28;45316;-62
2023/08/01 10:28:50;;;;;;;;;3.00;3.00;;;;;21.65;54.38;100197.03;5023396;28;45405;-62
2023/08/01 10:31:17;;;;;;;;;3.00;3.00;;;;;21.73;53.76;100196.50;5041279;28;45304;-62
2023/08/01 10:33:45;;;;;;;;;9.00;7.00;;;;;21.81;53.54;100195.97;5033261;28;47281;-62
2023/08/01 10:36:15;;;;;;;;;2.50;2.50;;;;;21.89;53.56;100198.97;5021309;28;45750;-62
2023/08/01 10:38:48;;;;;;;;;6.00;3.00;;;;;21.96;52.73;100194.03;5021242;28;45262;-62
2023/08/01 10:41:31;;;;;;;;;2.67;2.67;;;;;21.99;53.20;100178.63;5021222;28;45118;-62
2023/08/01 10:44:10;;;;;;;;;3.25;2.00;;;;;22.02;53.24;100183.75;5020737;28;45669;-62
2023/08/01 10:46:49;;;;;;;;;2.25;1.50;;;;;22.11;52.66;100176.88;5019742;28;45353;-63
2023/08/01 10:49:15;;;;;;;;;3.00;2.00;;;;;22.18;52.40;100185.34;5039765;28;45324;-62
2023/08/01 10:51:41;;;;;;;;;6.00;3.25;;;;;22.23;51.77;100197.41;5040773;28;45422;-62
2023/08/01 10:54:06;;;;;;;;;3.75;2.00;;;;;22.24;51.99;100198.28;5022311;28;47502;-63
2023/08/01 10:56:32;;;;;;;;;0.33;0.33;;;;;22.29;51.67;100205.97;5040424;28;45451;-62
2023/08/01 10:58:58;;;;;;;;;4.67;2.00;;;;;22.34;51.61;100203.81;5041011;28;45309;-62
2023/08/01 11:01:26;;;;;;;;;3.00;2.75;;;;;22.34;51.21;100204.69;5040352;28;45924;-62
2023/08/01 11:03:51;;;;;;;;;3.00;3.00;;;;;22.32;51.17;100203.06;5026594;28;47304;-62
2023/08/01 11:06:17;;;;;;;;;4.33;3.33;;;;;22.32;50.92;100201.25;5026647;28;45244;-62
2023/08/01 11:08:43;;;;;;;;;5.00;2.00;;;;;22.33;51.41;100202.97;5021218;28;45351;-62
2023/08/01 11:11:12;;;;;;;;;2.00;1.75;;;;;22.32;51.30;100217.31;5020548;28;45375;-62
2023/08/01 11:13:38;;;;;;;;;2.00;2.00;;;;;22.33;51.25;100210.16;5019358;28;47168;-62
2023/08/01 11:16:05;;;;;;;;;2.00;2.00;;;;;22.38;51.04;100221.41;5040331;28;45197;-62
2023/08/01 11:18:43;;;;;;;;;5.00;2.00;;;;;22.39;50.80;100217.78;5040711;28;45335;-62
2023/08/01 11:21:09;;;;;;;;;2.67;1.00;;;;;22.43;50.44;100213.91;5040412;28;45471;-62
2023/08/01 11:23:36;;;;;;;;;2.00;2.00;;;;;22.46;50.20;100204.78;5040194;28;45932;-62